Time;durP1;ratioP1;P1;durP2;ratioP2;P2;SDS_P1;SDS_P2;PMS_P1;PMS_P2;Temp;Humidity;BMP_temperature;BMP_pressure;BME280_temperature;BME280_humidity;BME280_pressure;Samples;Min_cycle;Max_cycle;Signal;HPM_P1;HPM_P2
2020/12/11 00:01:58;;;;;;;2.90;1.70;;;;;;;7.43;76.16;93716.16;4186475;28;20420;-81
2020/12/11 00:04:00;;;;;;;3.20;1.50;;;;;;;7.42;75.84;93711.94;4192661;28;20137;-82
2020/12/11 00:06:01;;;;;;;4.07;2.20;;;;;;;7.38;75.83;93726.25;4192063;28;20441;-81
2020/12/11 00:08:02;;;;;;;4.40;2.17;;;;;;;7.43;76.34;93730.97;4172118;28;20056;-81
2020/12/11 00:10:05;;;;;;;3.58;1.95;;;;;;;7.44;75.98;93730.78;4187470;28;20114;-82
2020/12/11 00:12:06;;;;;;;3.60;2.22;;;;;;;7.44;75.71;93724.78;4177022;28;20366;-81
2020/12/11 00:14:07;;;;;;;3.45;1.70;;;;;;;7.43;76.08;93720.56;4195947;28;20050;-81
2020/12/11 00:16:08;;;;;;;3.40;1.60;;;;;;;7.43;75.65;93729.19;4176008;28;20128;-78
2020/12/11 00:18:10;;;;;;;3.47;1.90;;;;;;;7.46;75.51;93721.03;4197995;28;20051;-79
2020/12/11 00:20:11;;;;;;;3.67;2.30;;;;;;;7.43;75.85;93718.75;4169405;28;20060;-79
2020/12/11 00:22:14;;;;;;;6.20;2.20;;;;;;;7.44;75.85;93722.16;4173665;28;20096;-79
2020/12/11 00:24:16;;;;;;;4.93;2.40;;;;;;;7.44;75.99;93724.78;4193032;28;20322;-81
2020/12/11 00:26:17;;;;;;;3.95;2.60;;;;;;;7.41;76.07;93740.75;4173939;28;20386;-82
2020/12/11 00:28:18;;;;;;;4.72;2.83;;;;;;;7.31;76.13;93731.31;4191878;28;20053;-81
2020/12/11 00:30:20;;;;;;;4.47;2.40;;;;;;;7.23;76.15;93733.91;4183796;28;20366;-79
2020/12/11 00:32:22;;;;;;;4.88;2.50;;;;;;;7.29;76.47;93729.81;4191895;28;20090;-82
2020/12/11 00:34:23;;;;;;;4.75;2.45;;;;;;;7.29;76.42;93732.44;4192050;28;20237;-79
2020/12/11 00:36:25;;;;;;;5.63;2.90;;;;;;;7.29;76.72;93732.44;4193432;28;20075;-78
2020/12/11 00:38:29;;;;;;;5.85;3.00;;;;;;;7.16;76.78;93732.91;4175885;28;20053;-76
2020/12/11 00:40:31;;;;;;;5.20;3.13;;;;;;;7.03;77.79;93732.59;4174278;28;20139;-79
2020/12/11 00:42:42;;;;;;;5.10;3.63;;;;;;;6.80;78.66;93741.03;4176370;28;20052;-76
2020/12/11 00:44:43;;;;;;;6.55;3.65;;;;;;;6.71;79.06;93739.34;4169951;28;20126;-79
2020/12/11 00:46:45;;;;;;;5.28;3.50;;;;;;;6.59;79.59;93743.25;4193908;28;20048;-77
2020/12/11 00:48:46;;;;;;;4.43;3.22;;;;;;;6.48;80.36;93739.13;4193861;28;20163;-68
2020/12/11 00:50:47;;;;;;;5.15;3.17;;;;;;;6.48;80.39;93734.75;4194700;28;20079;-70
2020/12/11 00:52:49;;;;;;;5.97;2.92;;;;;;;6.58;80.08;93742.41;4193670;28;20128;-67
2020/12/11 00:54:50;;;;;;;4.82;3.45;;;;;;;6.73;79.81;93740.00;4176510;28;20624;-69
2020/12/11 00:56:51;;;;;;;5.88;3.70;;;;;;;6.88;79.85;93740.19;4174785;28;20481;-68
2020/12/11 00:58:53;;;;;;;5.20;3.58;;;;;;;7.03;79.70;93741.19;4185473;28;20056;-69
2020/12/11 01:00:54;;;;;;;5.40;3.30;;;;;;;7.12;79.05;93742.84;4198561;28;20040;-69
2020/12/11 01:02:55;;;;;;;4.78;3.47;;;;;;;7.21;78.74;93737.66;4194287;28;20048;-68
2020/12/11 01:04:57;;;;;;;5.70;3.50;;;;;;;7.21;78.19;93735.06;4193606;28;20052;-69
2020/12/11 01:06:58;;;;;;;6.63;3.53;;;;;;;7.13;77.78;93739.25;4194339;28;20052;-68
2020/12/11 01:08:59;;;;;;;6.30;4.10;;;;;;;7.12;78.42;93742.84;4199393;28;20055;-69
2020/12/11 01:11:01;;;;;;;6.32;4.40;;;;;;;7.07;78.97;93739.91;4189441;28;20494;-69
2020/12/11 01:13:02;;;;;;;5.68;4.15;;;;;;;7.11;78.88;93741.22;4196300;28;20059;-68
2020/12/11 01:15:04;;;;;;;8.80;5.38;;;;;;;7.11;79.38;93740.41;4194321;28;20054;-70
2020/12/11 01:17:05;;;;;;;8.25;5.05;;;;;;;7.05;79.43;93741.03;4169831;28;20053;-70
2020/12/11 01:19:07;;;;;;;10.38;7.90;;;;;;;6.88;80.80;93740.19;4188679;28;20468;-69
2020/12/11 01:21:08;;;;;;;15.25;10.15;;;;;;;6.92;81.35;93741.50;4170736;28;20121;-68
2020/12/11 01:23:09;;;;;;;21.38;14.52;;;;;;;6.96;81.51;93738.44;4193768;28;20045;-69
2020/12/11 01:25:11;;;;;;;25.08;17.35;;;;;;;7.06;81.27;93742.69;4193511;28;20092;-68
2020/12/11 01:27:12;;;;;;;24.48;16.67;;;;;;;7.04;81.38;93739.44;4179258;28;20052;-69
2020/12/11 01:29:13;;;;;;;23.30;16.17;;;;;;;7.08;81.10;93743.34;4200458;28;20052;-69
2020/12/11 01:31:19;;;;;;;24.25;15.35;;;;;;;7.14;80.81;93734.88;4201670;28;20055;-69
2020/12/11 01:33:20;;;;;;;22.60;15.55;;;;;;;7.17;80.51;93739.75;4176618;28;20124;-69
2020/12/11 01:35:21;;;;;;;28.50;17.08;;;;;;;7.22;80.20;93736.66;4175004;28;20056;-70
2020/12/11 01:37:23;;;;;;;24.27;15.82;;;;;;;7.27;80.25;93739.59;4192797;28;20049;-68
2020/12/11 01:39:24;;;;;;;26.33;16.23;;;;;;;7.32;80.09;93737.34;4193934;28;20048;-69
2020/12/11 01:41:25;;;;;;;27.75;17.05;;;;;;;7.35;79.99;93731.78;4183343;28;20152;-68
2020/12/11 01:43:26;;;;;;;22.38;16.65;;;;;;;7.37;80.03;93730.63;4201698;28;20406;-69
2020/12/11 01:45:28;;;;;;;19.95;14.32;;;;;;;7.35;80.00;93732.59;4208424;28;20060;-69
2020/12/11 01:47:29;;;;;;;16.98;12.23;;;;;;;7.35;79.69;93731.78;4187859;28;20052;-69
2020/12/11 01:49:30;;;;;;;21.38;13.43;;;;;;;7.34;79.62;93725.75;4166650;28;20059;-68
2020/12/11 01:51:33;;;;;;;16.77;10.88;;;;;;;7.33;79.47;93729.34;4161505;28;20451;-69
2020/12/11 01:53:35;;;;;;;13.15;9.75;;;;;;;7.30;79.43;93734.06;4173803;28;20102;-69
2020/12/11 01:55:38;;;;;;;12.38;9.27;;;;;;;7.30;79.37;93731.47;4175692;28;20040;-72
2020/12/11 01:57:59;;;;;;;13.35;9.55;;;;;;;7.31;79.63;93730.47;4184796;28;20048;-70
2020/12/11 02:00:05;;;;;;;14.15;8.93;;;;;;;7.34;79.33;93733.59;4207227;28;20052;-73
2020/12/11 02:02:07;;;;;;;13.15;8.88;;;;;;;7.30;79.49;93739.28;4173594;28;20052;-70
2020/12/11 02:04:08;;;;;;;12.95;8.15;;;;;;;7.18;79.48;93733.56;4191943;28;20056;-72
2020/12/11 02:06:12;;;;;;;12.30;9.32;;;;;;;7.14;79.72;93737.47;4175297;28;20041;-72
2020/12/11 02:08:13;;;;;;;14.35;9.80;;;;;;;7.13;80.24;93728.03;4193050;28;20198;-71
2020/12/11 02:10:14;;;;;;;12.68;9.60;;;;;;;7.11;80.23;93725.59;4170763;28;20342;-69
2020/12/11 02:12:17;;;;;;;12.95;9.77;;;;;;;7.10;80.21;93729.19;4186872;28;20063;-68
2020/12/11 02:14:18;;;;;;;14.07;9.48;;;;;;;7.12;80.11;93721.19;4193945;28;20528;-69
2020/12/11 02:16:21;;;;;;;11.85;9.73;;;;;;;7.13;80.03;93731.44;4174513;28;20049;-68
2020/12/11 02:18:23;;;;;;;12.10;9.40;;;;;;;7.15;80.20;93720.88;4208159;28;20048;-69
2020/12/11 02:20:24;;;;;;;11.50;9.05;;;;;;;7.22;80.01;93732.28;4206684;28;20048;-69
2020/12/11 02:22:25;;;;;;;12.35;9.90;;;;;;;7.29;79.57;93727.22;4183255;28;20059;-68
2020/12/11 02:24:27;;;;;;;12.75;9.43;;;;;;;7.33;79.45;93725.91;4188849;28;20048;-69
2020/12/11 02:26:28;;;;;;;13.38;9.95;;;;;;;7.37;79.63;93737.66;4191913;28;20133;-69
2020/12/11 02:28:33;;;;;;;14.57;9.50;;;;;;;7.39;79.50;93736.50;4196508;28;20055;-70
2020/12/11 02:30:34;;;;;;;15.60;9.70;;;;;;;7.42;79.14;93744.97;4193717;28;20045;-68
2020/12/11 02:32:35;;;;;;;13.57;10.00;;;;;;;7.43;78.69;93744.00;4185977;28;20157;-68
2020/12/11 02:34:37;;;;;;;12.60;9.68;;;;;;;7.44;78.74;93735.19;4189378;28;20067;-69
2020/12/11 02:36:39;;;;;;;14.32;9.77;;;;;;;7.28;78.42;93726.41;4193808;28;20545;-69
2020/12/11 02:38:40;;;;;;;14.40;10.68;;;;;;;7.22;78.55;93723.66;4196708;28;20073;-68
2020/12/11 02:40:52;;;;;;;14.15;10.00;;;;;;;7.16;78.71;93727.69;4192718;28;20052;-68
2020/12/11 02:42:53;;;;;;;12.98;10.00;;;;;;;7.15;79.13;93733.91;4169425;28;20127;-69
2020/12/11 02:44:54;;;;;;;12.32;9.35;;;;;;;7.10;79.46;93723.16;4196526;28;21095;-70
2020/12/11 02:46:55;;;;;;;11.63;9.52;;;;;;;7.11;79.51;93722.97;4199600;28;20059;-77
2020/12/11 02:48:57;;;;;;;13.48;9.02;;;;;;;7.12;79.76;93734.22;4204578;28;20052;-76
2020/12/11 02:50:59;;;;;;;15.18;9.63;;;;;;;7.16;79.14;93727.69;4195293;28;20146;-76
2020/12/11 02:53:00;;;;;;;10.82;7.57;;;;;;;7.16;79.56;93722.50;4173909;28;20091;-69
2020/12/11 02:55:01;;;;;;;10.70;7.05;;;;;;;7.18;79.26;93725.75;4192098;28;20071;-68
2020/12/11 02:57:02;;;;;;;11.95;7.68;;;;;;;7.05;79.42;93721.03;4175942;28;20060;-69
2020/12/11 02:59:03;;;;;;;8.85;7.18;;;;;;;7.04;80.05;93729.81;4172147;28;20053;-68
2020/12/11 03:01:05;;;;;;;11.20;7.60;;;;;;;7.09;79.66;93732.75;4175908;28;20462;-70
2020/12/11 03:03:06;;;;;;;10.77;7.60;;;;;;;7.12;79.69;93729.00;4183737;28;20418;-69
2020/12/11 03:05:07;;;;;;;12.98;7.68;;;;;;;7.08;79.64;93736.34;4191584;28;20086;-68
2020/12/11 03:07:08;;;;;;;12.25;8.63;;;;;;;7.04;79.74;93742.03;4192121;28;20694;-69
2020/12/11 03:09:10;;;;;;;11.15;8.30;;;;;;;7.04;79.69;93744.63;4181484;28;20392;-71
2020/12/11 03:11:11;;;;;;;12.40;8.40;;;;;;;7.10;79.89;93744.81;4191733;28;20045;-68
2020/12/11 03:13:12;;;;;;;10.52;7.82;;;;;;;7.14;79.75;93746.13;4185810;28;20055;-68
2020/12/11 03:15:13;;;;;;;12.93;9.30;;;;;;;7.21;79.64;93740.28;4200047;28;20617;-69
2020/12/11 03:17:15;;;;;;;10.13;7.78;;;;;;;7.28;80.07;93736.03;4199259;28;20049;-70
2020/12/11 03:19:16;;;;;;;10.32;7.90;;;;;;;7.29;79.70;93740.25;4193411;28;20113;-68
2020/12/11 03:21:17;;;;;;;10.82;7.30;;;;;;;7.31;80.11;93735.69;4197947;28;20058;-69
2020/12/11 03:23:18;;;;;;;10.15;7.70;;;;;;;7.38;79.14;93741.91;4174480;28;20041;-70
2020/12/11 03:25:20;;;;;;;11.35;7.80;;;;;;;7.41;79.14;93740.75;4194002;28;20155;-69
2020/12/11 03:27:22;;;;;;;9.73;7.50;;;;;;;7.43;79.27;93744.00;4190712;28;20087;-69
2020/12/11 03:29:23;;;;;;;11.05;7.63;;;;;;;7.44;79.05;93740.41;4191823;28;20133;-69
2020/12/11 03:31:24;;;;;;;10.80;8.13;;;;;;;7.46;78.94;93746.28;4182975;28;20064;-69
2020/12/11 03:33:26;;;;;;;11.45;7.47;;;;;;;7.47;78.75;93748.72;4184987;28;20060;-67
2020/12/11 03:35:27;;;;;;;11.90;7.25;;;;;;;7.42;78.13;93758.00;4190794;28;20056;-69
2020/12/11 03:37:29;;;;;;;13.15;7.78;;;;;;;7.38;77.99;93754.94;4173206;28;20067;-69
2020/12/11 03:39:30;;;;;;;9.75;7.45;;;;;;;7.28;78.91;93765.50;4191328;28;20052;-69
2020/12/11 03:41:31;;;;;;;10.45;7.22;;;;;;;7.23;78.62;93764.34;4156652;28;20053;-69
2020/12/11 03:43:32;;;;;;;10.52;7.57;;;;;;;7.23;78.96;93762.56;4191915;28;20422;-68
2020/12/11 03:45:34;;;;;;;10.63;7.38;;;;;;;7.27;78.68;93763.03;4205684;28;20173;-69
2020/12/11 03:47:36;;;;;;;11.13;7.50;;;;;;;7.30;79.05;93770.53;4173488;28;20057;-70
2020/12/11 03:49:38;;;;;;;14.48;9.07;;;;;;;7.33;78.79;93783.25;4190087;28;20056;-70
2020/12/11 03:51:39;;;;;;;9.80;7.22;;;;;;;7.37;79.03;93782.75;4199495;28;20059;-69
2020/12/11 03:53:40;;;;;;;10.20;7.30;;;;;;;7.38;78.94;93780.97;4190113;28;20135;-70
2020/12/11 03:55:41;;;;;;;10.57;7.60;;;;;;;7.42;78.89;93779.69;4187113;28;20045;-69
2020/12/11 03:57:43;;;;;;;13.27;8.52;;;;;;;7.45;78.57;93784.56;4173076;28;20439;-68
2020/12/11 03:59:44;;;;;;;12.35;8.38;;;;;;;7.46;78.44;93787.97;4174273;28;20053;-69
2020/12/11 04:01:45;;;;;;;13.63;8.65;;;;;;;7.46;78.52;93790.56;4190941;28;20056;-70
2020/12/11 04:03:47;;;;;;;11.95;8.15;;;;;;;7.38;78.47;93792.22;4191485;28;20502;-69
2020/12/11 04:05:48;;;;;;;12.63;7.88;;;;;;;7.30;78.54;93791.38;4185586;28;20048;-70
2020/12/11 04:07:50;;;;;;;12.85;8.32;;;;;;;7.24;78.16;93795.44;4198318;28;20489;-69
2020/12/11 04:09:51;;;;;;;12.30;8.48;;;;;;;7.22;79.05;93797.38;4174122;28;20484;-68
2020/12/11 04:11:52;;;;;;;14.45;7.80;;;;;;;7.24;78.79;93798.03;4172215;28;20536;-68
2020/12/11 04:13:53;;;;;;;12.77;8.38;;;;;;;7.30;79.01;93804.41;4189437;28;20060;-70
2020/12/11 04:15:55;;;;;;;12.25;7.78;;;;;;;7.31;78.43;93801.66;4186165;28;20061;-68
2020/12/11 04:17:56;;;;;;;12.55;7.70;;;;;;;7.11;78.47;93813.34;4190830;28;20041;-67
2020/12/11 04:19:58;;;;;;;9.65;7.65;;;;;;;7.01;78.51;93805.66;4189985;28;20056;-69
2020/12/11 04:22:00;;;;;;;13.15;8.15;;;;;;;6.61;80.36;93806.34;4185572;28;20045;-72
2020/12/11 04:24:01;;;;;;;11.32;7.93;;;;;;;6.38;80.85;93806.88;4200508;28;21575;-77
2020/12/11 04:26:02;;;;;;;10.18;7.25;;;;;;;6.14;82.50;93808.41;4177817;28;20055;-79
2020/12/11 04:28:03;;;;;;;11.90;7.78;;;;;;;6.09;82.24;93815.03;4206257;28;20084;-78
2020/12/11 04:30:05;;;;;;;10.75;7.85;;;;;;;6.05;81.98;93811.91;4194960;28;20071;-75
2020/12/11 04:32:06;;;;;;;12.10;8.00;;;;;;;5.85;83.34;93826.88;4165212;28;20493;-77
2020/12/11 04:34:07;;;;;;;12.15;8.70;;;;;;;5.93;83.36;93815.69;4195531;28;20063;-76
2020/12/11 04:36:16;;;;;;;13.18;9.10;;;;;;;5.90;83.80;93821.22;4177088;28;20068;-77
2020/12/11 04:38:17;;;;;;;14.60;10.15;;;;;;;5.94;83.13;93820.78;4193659;28;20044;-78
2020/12/11 04:40:18;;;;;;;14.43;10.80;;;;;;;5.86;83.72;93823.31;4189965;28;20573;-77
2020/12/11 04:42:20;;;;;;;17.02;12.27;;;;;;;5.77;84.63;93824.22;4192504;28;20080;-77
2020/12/11 04:44:22;;;;;;;20.85;13.57;;;;;;;5.82;84.48;93818.56;4194047;28;20083;-77
2020/12/11 04:46:27;;;;;;;24.48;17.48;;;;;;;5.86;84.04;93823.31;4197084;28;20059;-78
2020/12/11 04:48:29;;;;;;;33.63;25.15;;;;;;;5.70;84.93;93824.00;4186563;28;20519;-76
2020/12/11 04:50:43;;;;;;;38.20;29.60;;;;;;;5.72;84.48;93821.22;4168472;28;20424;-77
2020/12/11 04:52:47;;;;;;;46.92;35.53;;;;;;;5.65;85.17;93815.81;4190322;28;20449;-76
2020/12/11 04:54:49;;;;;;;43.45;31.52;;;;;;;5.66;85.11;93812.28;4158846;28;20053;-79
2020/12/11 04:56:52;;;;;;;42.83;31.63;;;;;;;5.62;85.54;93817.94;4160743;28;20636;-79
2020/12/11 04:58:54;;;;;;;41.20;30.83;;;;;;;5.67;85.70;93813.91;4160384;28;20049;-76
2020/12/11 05:01:01;;;;;;;40.38;30.98;;;;;;;5.73;85.27;93810.69;4177676;28;20117;-78
2020/12/11 05:03:03;;;;;;;38.78;29.02;;;;;;;5.84;84.77;93799.25;4202537;28;20471;-77
2020/12/11 05:05:04;;;;;;;37.75;26.98;;;;;;;5.91;84.90;93796.84;4196845;28;20115;-77
2020/12/11 05:07:06;;;;;;;27.95;19.55;;;;;;;6.02;84.46;93801.81;4176359;28;20156;-76
2020/12/11 05:09:15;;;;;;;30.23;22.35;;;;;;;6.01;84.13;93795.00;4191632;28;20052;-76
2020/12/11 05:11:29;;;;;;;29.65;21.52;;;;;;;5.99;84.48;93812.53;4165946;28;20529;-78
2020/12/11 05:13:30;;;;;;;23.70;17.58;;;;;;;5.97;84.21;93808.47;4182983;28;20045;-77
2020/12/11 05:15:31;;;;;;;24.15;17.30;;;;;;;5.93;84.02;93807.91;4177417;28;20627;-78
2020/12/11 05:17:35;;;;;;;23.80;17.80;;;;;;;5.90;84.21;93809.03;4193599;28;20052;-76
2020/12/11 05:19:57;;;;;;;25.13;16.85;;;;;;;5.90;84.88;93813.41;4195627;28;20041;-78
2020/12/11 05:22:11;;;;;;;25.23;18.17;;;;;;;5.97;84.47;93814.47;4175513;28;20049;-78
2020/12/11 05:24:15;;;;;;;22.63;16.40;;;;;;;6.04;84.14;93819.88;4176892;28;20479;-78
2020/12/11 05:26:20;;;;;;;24.50;18.48;;;;;;;6.19;83.67;93815.72;4180530;28;20060;-77
2020/12/11 05:28:21;;;;;;;26.55;18.38;;;;;;;6.26;83.46;93818.53;4177503;28;20053;-79
2020/12/11 05:30:24;;;;;;;26.30;18.40;;;;;;;6.41;83.57;93822.22;4176529;28;20551;-78
2020/12/11 05:32:38;;;;;;;25.52;17.85;;;;;;;6.55;83.06;93832.00;4154900;28;20053;-75
2020/12/11 05:34:39;;;;;;;22.25;17.30;;;;;;;6.67;82.63;93827.38;4198629;28;20102;-78
2020/12/11 05:37:06;;;;;;;22.23;15.13;;;;;;;6.75;82.41;93834.38;4195287;28;20434;-79
2020/12/11 05:39:08;;;;;;;55.88;40.45;;;;;;;6.83;82.40;93839.63;4190421;28;20086;-77
2020/12/11 05:41:09;;;;;;;23.65;17.60;;;;;;;6.91;82.27;93839.66;4178776;28;20072;-76
2020/12/11 05:43:21;;;;;;;23.27;15.95;;;;;;;6.98;81.50;93842.44;4193091;28;20159;-78
2020/12/11 05:45:23;;;;;;;20.77;14.13;;;;;;;7.02;81.49;93848.97;4194318;28;20091;-77
2020/12/11 05:47:25;;;;;;;18.25;13.73;;;;;;;7.04;81.05;93854.00;4181788;28;20056;-77
2020/12/11 05:49:30;;;;;;;18.42;13.20;;;;;;;7.01;80.64;93849.91;4194015;28;20049;-80
2020/12/11 05:51:37;;;;;;;21.30;14.55;;;;;;;6.86;80.91;93854.94;4187389;28;20153;-78
2020/12/11 05:53:38;;;;;;;19.45;13.15;;;;;;;6.73;81.56;93857.13;4177336;28;20091;-78
2020/12/11 05:55:40;;;;;;;19.88;13.60;;;;;;;6.71;80.96;93859.06;4184518;28;20051;-79
2020/12/11 05:57:42;;;;;;;20.40;13.68;;;;;;;6.62;81.73;93863.44;4182728;28;20055;-78
2020/12/11 05:59:44;;;;;;;19.02;13.57;;;;;;;6.67;81.66;93866.41;4187541;28;20059;-77
2020/12/11 06:01:47;;;;;;;19.25;14.48;;;;;;;6.79;81.84;93874.75;4180363;28;20542;-77
2020/12/11 06:03:50;;;;;;;18.13;14.73;;;;;;;6.90;81.79;93865.84;4185570;28;20083;-77
2020/12/11 06:05:58;;;;;;;20.20;14.25;;;;;;;6.99;81.29;93877.94;4179862;28;20139;-78
2020/12/11 06:08:00;;;;;;;17.77;13.10;;;;;;;7.10;81.26;93874.22;4175329;28;20052;-77
2020/12/11 06:10:04;;;;;;;18.25;13.02;;;;;;;7.16;80.74;93884.81;4170815;28;20469;-78
2020/12/11 06:12:06;;;;;;;15.18;12.02;;;;;;;7.20;79.99;93887.91;4180084;28;20468;-77
2020/12/11 06:14:10;;;;;;;15.77;11.80;;;;;;;7.22;79.99;93883.34;4188683;28;20547;-77
2020/12/11 06:16:12;;;;;;;15.60;11.77;;;;;;;7.20;78.67;93882.69;4172270;28;20056;-77
2020/12/11 06:18:16;;;;;;;16.10;12.18;;;;;;;7.11;79.11;93883.66;4167498;28;20048;-77
2020/12/11 06:20:18;;;;;;;17.85;13.35;;;;;;;6.90;79.87;93886.66;4196949;28;20044;-79
2020/12/11 06:22:21;;;;;;;18.15;12.68;;;;;;;6.86;80.27;93874.94;4173378;28;20483;-77
2020/12/11 06:24:29;;;;;;;18.63;12.85;;;;;;;6.91;80.15;93878.69;4198158;28;20051;-79
2020/12/11 06:26:31;;;;;;;19.83;13.48;;;;;;;6.96;79.86;93873.03;4174460;28;20049;-80
2020/12/11 06:28:45;;;;;;;18.88;13.85;;;;;;;6.94;80.02;93874.97;4165824;28;20052;-79
2020/12/11 06:30:53;;;;;;;21.42;15.63;;;;;;;7.01;79.63;93885.56;4177084;28;20055;-77
2020/12/11 06:32:55;;;;;;;19.92;14.02;;;;;;;7.01;79.70;93881.16;4175329;28;20049;-79
2020/12/11 06:35:16;;;;;;;20.48;14.27;;;;;;;6.93;80.25;93876.75;4175517;28;20608;-80
2020/12/11 06:37:36;;;;;;;15.10;12.55;;;;;;;6.87;80.66;93881.78;4185137;28;20055;-79
2020/12/11 06:39:43;;;;;;;16.85;12.25;;;;;;;6.68;80.55;93883.63;4193172;28;20056;-79
2020/12/11 06:41:44;;;;;;;18.73;12.75;;;;;;;6.74;80.88;93887.41;4172050;28;20208;-78
2020/12/11 06:43:46;;;;;;;14.80;11.77;;;;;;;6.70;80.86;93888.69;4174185;28;20111;-78
2020/12/11 06:46:14;;;;;;;14.95;10.50;;;;;;;6.64;80.93;93881.50;4175048;28;20052;-79
2020/12/11 06:48:15;;;;;;;16.00;11.38;;;;;;;6.71;80.50;93879.91;4210888;28;20043;-79
2020/12/11 06:50:18;;;;;;;16.48;11.77;;;;;;;6.84;80.63;93882.06;4199823;28;20048;-77
2020/12/11 06:52:19;;;;;;;15.77;11.98;;;;;;;6.88;79.36;93886.84;4193394;28;20055;-78
2020/12/11 06:54:20;;;;;;;15.93;11.00;;;;;;;6.96;79.50;93888.63;4175629;28;20061;-78
2020/12/11 06:56:41;;;;;;;18.58;12.95;;;;;;;7.08;79.71;93882.19;4182888;28;20143;-78
2020/12/11 06:58:43;;;;;;;18.02;11.52;;;;;;;7.14;78.65;93888.53;4176147;28;20053;-78
2020/12/11 07:00:51;;;;;;;15.13;13.05;;;;;;;7.16;78.52;93890.03;4174428;28;20143;-78
2020/12/11 07:03:18;;;;;;;16.98;12.32;;;;;;;7.20;78.64;93889.69;4192514;28;20058;-77
2020/12/11 07:05:19;;;;;;;19.48;13.40;;;;;;;7.17;78.84;93890.84;4192438;28;20059;-78
2020/12/11 07:07:29;;;;;;;19.50;13.77;;;;;;;7.00;79.51;93895.16;4191534;28;20101;-76
2020/12/11 07:09:30;;;;;;;22.92;13.75;;;;;;;7.04;79.01;93901.69;4174417;28;20082;-79
2020/12/11 07:11:31;;;;;;;20.25;13.80;;;;;;;6.78;79.31;93896.53;4190480;28;20048;-77
2020/12/11 07:13:35;;;;;;;21.30;14.63;;;;;;;6.81;79.66;93893.63;4174937;28;20053;-78
2020/12/11 07:15:37;;;;;;;18.08;13.57;;;;;;;6.80;79.43;93897.22;4173846;28;20600;-77
2020/12/11 07:17:41;;;;;;;19.73;14.18;;;;;;;6.79;79.42;93892.97;4175321;28;20135;-78
2020/12/11 07:19:43;;;;;;;22.77;15.05;;;;;;;6.74;79.56;93895.22;4192975;28;20499;-81
2020/12/11 07:21:46;;;;;;;19.23;13.85;;;;;;;6.79;79.68;93898.16;4173718;28;20057;-80
2020/12/11 07:23:48;;;;;;;20.27;14.75;;;;;;;6.79;79.09;93894.75;4175585;28;20056;-79
2020/12/11 07:25:51;;;;;;;22.40;15.55;;;;;;;6.77;79.80;93900.09;4191003;28;20048;-81
2020/12/11 07:28:02;;;;;;;19.58;14.68;;;;;;;6.80;78.93;93898.97;4172843;28;20056;-77
2020/12/11 07:30:04;;;;;;;19.15;13.45;;;;;;;6.88;79.08;93899.84;4176459;28;20451;-76
2020/12/11 07:32:05;;;;;;;18.40;14.25;;;;;;;6.93;78.91;93897.59;4161026;28;20128;-79
2020/12/11 07:34:17;;;;;;;20.17;13.43;;;;;;;7.04;78.78;93903.50;4171636;28;20049;-80
2020/12/11 07:36:18;;;;;;;16.38;11.77;;;;;;;7.14;77.83;93899.78;4174201;28;20049;-79
2020/12/11 07:38:26;;;;;;;16.75;11.55;;;;;;;7.26;78.17;93899.50;4173509;28;20045;-81
2020/12/11 07:40:28;;;;;;;23.75;17.45;;;;;;;7.31;78.24;93903.28;4176133;28;20044;-77
2020/12/11 07:42:31;;;;;;;23.27;16.60;;;;;;;7.37;77.59;93907.81;4159784;28;20467;-80
2020/12/11 07:44:34;;;;;;;16.48;12.45;;;;;;;7.47;77.00;93897.28;4170861;28;20908;-83
2020/12/11 07:46:39;;;;;;;;;;;;;;;7.52;76.30;93905.41;4166217;28;20059;-76
2020/12/11 07:48:50;;;;;;;;;;;;;;;7.51;76.55;93903.00;4169949;28;20007;-77
2020/12/11 07:50:51;;;;;;;16.92;11.82;;;;;;;7.44;76.80;93901.97;4177098;28;19959;-79
2020/12/11 07:52:55;;;;;;;21.17;12.95;;;;;;;7.40;77.05;93896.28;4180677;28;20458;-80
2020/12/11 07:54:56;;;;;;;19.58;15.10;;;;;;;7.21;78.11;93897.38;4194024;28;20052;-79
2020/12/11 07:57:09;;;;;;;22.75;17.17;;;;;;;7.12;77.84;93901.75;4164498;28;20111;-80
2020/12/11 07:59:12;;;;;;;23.97;17.33;;;;;;;7.17;78.24;93902.06;4167195;28;20067;-81
2020/12/11 08:01:13;;;;;;;26.08;16.77;;;;;;;7.25;77.75;93897.84;4184275;28;20729;-79
2020/12/11 08:03:14;;;;;;;22.55;16.90;;;;;;;7.30;77.92;93913.84;4186405;28;20149;-81
2020/12/11 08:05:16;;;;;;;22.60;16.60;;;;;;;7.38;77.41;93909.47;4178882;28;20052;-82
2020/12/11 08:07:27;;;;;;;22.23;16.17;;;;;;;7.16;77.64;93910.03;4177853;28;20061;-81
2020/12/11 08:09:33;;;;;;;22.02;15.93;;;;;;;7.11;78.09;93920.13;4178425;28;20065;-78
2020/12/11 08:11:34;;;;;;;24.85;17.65;;;;;;;7.10;78.23;93923.72;4177203;28;20049;-77
2020/12/11 08:13:35;;;;;;;23.35;16.85;;;;;;;7.02;79.35;93927.09;4189625;28;20052;-77
2020/12/11 08:15:37;;;;;;;24.48;17.83;;;;;;;7.06;78.60;93930.19;4181301;28;20065;-79
2020/12/11 08:17:41;;;;;;;27.63;19.42;;;;;;;7.00;78.35;93925.63;4173878;28;20051;-80
2020/12/11 08:19:43;;;;;;;24.27;19.35;;;;;;;6.88;79.04;93928.50;4178416;28;20055;-79
2020/12/11 08:21:44;;;;;;;27.98;20.17;;;;;;;6.84;79.06;93931.53;4179027;28;20059;-80
2020/12/11 08:23:47;;;;;;;26.77;17.65;;;;;;;6.85;78.35;93927.97;4178900;28;20056;-80
2020/12/11 08:26:19;;;;;;;28.73;19.25;;;;;;;6.93;78.80;93923.63;4177734;28;20064;-80
2020/12/11 08:28:21;;;;;;;33.55;19.30;;;;;;;6.96;78.10;93931.13;4175605;28;20101;-80
2020/12/11 08:30:23;;;;;;;30.60;18.08;;;;;;;7.07;77.96;93924.00;4177360;28;20057;-81
2020/12/11 08:32:26;;;;;;;28.83;18.77;;;;;;;7.12;77.59;93919.13;4178138;28;20059;-81
2020/12/11 08:34:29;;;;;;;35.10;22.30;;;;;;;7.37;76.79;93922.66;4176361;28;20052;-77
2020/12/11 08:36:32;;;;;;;26.80;18.08;;;;;;;7.61;76.18;93914.06;4160002;28;20042;-79
2020/12/11 08:38:34;;;;;;;25.15;17.27;;;;;;;7.59;75.61;93919.47;4178367;28;20063;-77
2020/12/11 08:40:46;;;;;;;23.63;17.50;;;;;;;7.79;75.37;93924.38;4183824;28;20439;-78
2020/12/11 08:43:11;;;;;;;23.58;17.88;;;;;;;8.12;75.53;93927.00;4176384;28;20049;-80
2020/12/11 08:45:22;;;;;;;36.53;28.45;;;;;;;8.37;74.93;93926.03;4176166;28;20059;-78
2020/12/11 08:50:00;;;;;;;24.77;18.55;;;;;;;8.73;71.82;93919.63;4170229;28;20057;-79
2020/12/11 08:52:01;;;;;;;22.95;17.88;;;;;;;8.69;71.81;93913.09;4170164;28;20045;-79
2020/12/11 08:54:06;;;;;;;27.48;19.63;;;;;;;8.36;72.69;93920.97;4175831;28;20136;-77
2020/12/11 08:56:14;;;;;;;26.50;18.63;;;;;;;8.19;73.03;93907.94;4169871;28;20045;-77
2020/12/11 08:58:15;;;;;;;25.98;19.90;;;;;;;8.07;73.56;93905.81;4174027;28;20410;-79
2020/12/11 09:00:17;;;;;;;25.45;18.55;;;;;;;8.22;73.11;93901.56;4192080;28;20082;-79
2020/12/11 09:02:18;;;;;;;28.40;20.15;;;;;;;8.46;73.15;93900.75;4175184;28;20048;-82
2020/12/11 09:04:20;;;;;;;25.98;18.33;;;;;;;8.70;71.98;93906.91;4177268;28;20106;-80
2020/12/11 09:06:21;;;;;;;25.30;19.45;;;;;;;8.59;72.28;93908.06;4176745;28;20053;-81
2020/12/11 09:08:23;;;;;;;27.00;18.75;;;;;;;8.39;72.64;93905.78;4177161;28;20053;-79
2020/12/11 09:10:24;;;;;;;25.77;18.33;;;;;;;8.36;72.74;93903.50;4154706;28;20053;-79
2020/12/11 09:12:26;;;;;;;29.83;20.25;;;;;;;7.76;75.04;93912.44;4173752;28;20057;-78
2020/12/11 09:14:27;;;;;;;30.15;22.48;;;;;;;7.83;74.78;93904.00;4176689;28;20045;-80
2020/12/11 09:16:28;;;;;;;29.40;22.00;;;;;;;8.00;74.31;93909.06;4176871;28;20045;-79
2020/12/11 09:18:30;;;;;;;28.52;22.23;;;;;;;7.85;74.77;93909.84;4174343;28;20044;-80
2020/12/11 09:20:31;;;;;;;30.85;23.60;;;;;;;8.02;75.08;93895.84;4157963;28;20064;-78
2020/12/11 09:22:32;;;;;;;28.23;21.55;;;;;;;8.40;74.54;93899.59;4174897;28;20063;-80
2020/12/11 09:24:34;;;;;;;25.27;21.25;;;;;;;8.78;72.59;93899.88;4191764;28;20071;-81
2020/12/11 09:26:35;;;;;;;27.23;21.42;;;;;;;9.06;71.49;93898.66;4148767;28;696106;-78
2020/12/11 09:28:37;;;;;;;27.88;22.13;;;;;;;9.26;70.29;93894.63;4176146;28;20471;-77
2020/12/11 09:30:40;;;;;;;28.25;22.33;;;;;;;9.28;70.23;93891.84;4194691;28;20049;-69
2020/12/11 09:33:26;;;;;;;27.23;21.90;;;;;;;9.36;70.37;93883.97;4195859;28;20159;-69
2020/12/11 09:35:07;;;;;;;29.23;22.27;;;;;;;9.36;69.44;93890.00;4180139;28;20050;-70
2020/12/11 09:37:08;;;;;;;27.10;21.33;;;;;;;9.31;69.44;93886.28;4195446;28;20484;-69
2020/12/11 09:39:10;;;;;;;28.75;21.90;;;;;;;9.32;69.72;93885.31;4196075;28;20410;-70
2020/12/11 09:41:14;;;;;;;31.30;22.90;;;;;;;9.33;70.11;93881.69;4195751;28;20049;-69